Time;durP1;ratioP1;P1;durP2;ratioP2;P2;SDS_P1;SDS_P2;PMS_P1;PMS_P2;Temp;Humidity;BMP_temperature;BMP_pressure;BME280_temperature;BME280_humidity;BME280_pressure;Samples;Min_cycle;Max_cycle;Signal;HPM_P1;HPM_P2
2022/05/07 00:02:06;;;;;;;16.65;9.63;;;13.30;99.90;;;;;;5024205;28;20284;-69
2022/05/07 00:04:34;;;;;;;19.63;10.73;;;13.20;99.90;;;;;;5008458;28;20022;-70
2022/05/07 00:07:00;;;;;;;18.20;10.95;;;13.20;99.90;;;;;;5025317;28;20049;-69
2022/05/07 00:09:25;;;;;;;21.45;11.95;;;13.20;99.90;;;;;;5008138;28;20033;-69
2022/05/07 00:11:51;;;;;;;20.67;12.70;;;13.20;99.90;;;;;;5025392;28;20037;-68
2022/05/07 00:14:17;;;;;;;18.92;11.32;;;13.20;99.90;;;;;;5025182;28;20068;-69
2022/05/07 00:19:28;;;;;;;23.63;12.05;;;13.10;99.90;;;;;;5024296;28;20209;-68
2022/05/07 00:21:54;;;;;;;22.10;12.98;;;13.10;99.90;;;;;;5024135;28;20026;-68
2022/05/07 00:24:19;;;;;;;23.00;11.80;;;13.00;99.90;;;;;;5007713;28;20068;-69
2022/05/07 00:26:45;;;;;;;22.17;11.55;;;13.00;99.90;;;;;;5007181;28;20161;-68
2022/05/07 00:29:12;;;;;;;18.33;10.85;;;13.00;99.90;;;;;;5025190;28;20205;-68
2022/05/07 00:31:38;;;;;;;20.08;11.43;;;12.90;99.90;;;;;;5023915;28;20053;-69
2022/05/07 00:34:05;;;;;;;19.42;12.65;;;12.90;99.90;;;;;;5023682;28;20192;-68
2022/05/07 00:36:32;;;;;;;21.40;12.18;;;12.90;99.90;;;;;;5025038;28;20037;-68
2022/05/07 00:38:58;;;;;;;19.90;11.20;;;12.80;99.90;;;;;;5023880;28;20029;-68
2022/05/07 00:41:23;;;;;;;15.95;10.45;;;12.80;99.90;;;;;;5023785;28;20217;-68
2022/05/07 00:43:49;;;;;;;19.33;10.63;;;12.80;99.90;;;;;;5007312;28;20021;-68
2022/05/07 00:46:15;;;;;;;17.25;10.77;;;12.80;99.90;;;;;;5024714;28;20244;-68
2022/05/07 00:48:41;;;;;;;19.95;11.55;;;12.80;99.90;;;;;;5023444;28;20025;-68
2022/05/07 00:53:52;;;;;;;18.83;9.93;;;12.80;99.90;;;;;;5009657;28;20045;-70
2022/05/07 00:56:18;;;;;;;18.33;10.23;;;12.80;99.90;;;;;;5024557;28;20034;-70
2022/05/07 00:58:44;;;;;;;15.27;9.13;;;12.90;99.90;;;;;;5023091;28;20021;-68
2022/05/07 01:01:09;;;;;;;18.25;9.85;;;12.90;99.90;;;;;;5022611;28;20033;-70
2022/05/07 01:03:36;;;;;;;18.05;10.45;;;13.00;99.90;;;;;;5024444;28;20046;-70
2022/05/07 01:06:01;;;;;;;16.95;9.15;;;13.00;99.90;;;;;;5007152;28;20021;-69
2022/05/07 01:08:30;;;;;;;18.70;8.85;;;13.10;99.90;;;;;;5006848;28;20072;-69
2022/05/07 01:10:56;;;;;;;13.55;8.65;;;13.10;99.90;;;;;;5024431;28;20057;-69
2022/05/07 01:13:22;;;;;;;14.63;8.38;;;13.10;99.90;;;;;;5023085;28;20076;-67
2022/05/07 01:15:53;;;;;;;12.88;7.65;;;13.20;99.90;;;;;;5024419;28;20213;-67
2022/05/07 01:18:19;;;;;;;17.47;8.30;;;13.20;99.90;;;;;;5023987;28;20021;-68
2022/05/07 01:20:45;;;;;;;16.05;8.18;;;13.10;99.90;;;;;;4990688;28;20427;-68
2022/05/07 01:23:12;;;;;;;13.43;7.88;;;13.20;99.90;;;;;;4990276;28;20100;-70
2022/05/07 01:25:38;;;;;;;11.35;7.85;;;13.20;99.90;;;;;;5006702;28;20088;-69
2022/05/07 01:28:04;;;;;;;12.02;7.90;;;13.20;99.90;;;;;;5022528;28;20030;-69
2022/05/07 01:30:30;;;;;;;14.50;7.13;;;13.20;99.90;;;;;;5006369;28;20018;-69
2022/05/07 01:32:56;;;;;;;13.63;7.32;;;13.30;99.90;;;;;;5023886;28;20040;-70
2022/05/07 01:35:22;;;;;;;12.40;7.45;;;13.30;99.90;;;;;;5024006;28;20366;-68
2022/05/07 01:37:48;;;;;;;12.50;7.85;;;13.30;99.90;;;;;;5023952;28;20033;-69
2022/05/07 01:40:13;;;;;;;10.57;7.53;;;13.30;99.90;;;;;;5023907;28;20292;-69
2022/05/07 01:42:40;;;;;;;7.88;5.30;;;13.30;99.90;;;;;;5023956;28;20313;-68
2022/05/07 01:45:06;;;;;;;7.10;4.15;;;13.30;99.90;;;;;;5023882;28;20022;-69
2022/05/07 01:50:22;;;;;;;7.55;3.45;;;13.30;99.90;;;;;;5022987;28;20053;-68
2022/05/07 01:52:48;;;;;;;10.48;2.85;;;13.30;99.90;;;;;;5022630;28;20213;-68
2022/05/07 01:55:14;;;;;;;5.25;2.45;;;13.30;99.90;;;;;;5005958;28;20072;-68
2022/05/07 01:57:39;;;;;;;4.93;2.47;;;13.30;99.90;;;;;;5023480;28;20088;-69
2022/05/07 02:00:06;;;;;;;5.03;2.42;;;13.40;99.90;;;;;;5022367;28;20049;-68
2022/05/07 02:02:32;;;;;;;3.60;2.22;;;13.40;99.90;;;;;;5022079;28;20018;-68
2022/05/07 02:04:58;;;;;;;3.15;1.60;;;13.40;99.90;;;;;;5006303;28;20026;-68
2022/05/07 02:07:23;;;;;;;10.02;2.28;;;13.40;99.90;;;;;;5022669;28;20022;-68
2022/05/07 02:09:49;;;;;;;5.88;1.90;;;13.40;99.90;;;;;;5023551;28;20244;-68
2022/05/07 02:12:15;;;;;;;3.08;1.55;;;13.40;99.90;;;;;;4989885;28;20253;-68
2022/05/07 02:14:41;;;;;;;5.95;1.58;;;13.40;99.90;;;;;;5006331;28;20026;-69
2022/05/07 02:17:07;;;;;;;4.82;1.85;;;13.40;99.90;;;;;;5023540;28;20025;-68
2022/05/07 02:19:32;;;;;;;2.22;1.52;;;13.30;99.90;;;;;;5022491;28;20030;-69
2022/05/07 02:21:58;;;;;;;5.22;1.88;;;13.30;99.90;;;;;;5006005;28;20014;-68
2022/05/07 02:24:24;;;;;;;3.55;1.20;;;13.40;99.90;;;;;;5022532;28;20018;-68
2022/05/07 02:26:49;;;;;;;2.92;1.60;;;13.40;99.90;;;;;;5022161;28;20080;-69
2022/05/07 02:29:15;;;;;;;2.50;1.63;;;13.50;99.90;;;;;;5022056;28;20021;-69
2022/05/07 02:31:41;;;;;;;5.80;1.80;;;13.40;99.90;;;;;;5023496;28;20305;-68
2022/05/07 02:34:07;;;;;;;2.10;1.30;;;13.40;99.90;;;;;;5023108;28;20206;-69
2022/05/07 02:36:33;;;;;;;3.50;1.60;;;13.40;99.90;;;;;;5022409;28;20055;-69
2022/05/07 02:38:59;;;;;;;9.02;1.98;;;13.40;99.90;;;;;;5023149;28;20045;-68
2022/05/07 02:44:11;;;;;;;1.58;1.10;;;13.40;99.90;;;;;;5012250;28;20025;-69
2022/05/07 02:46:36;;;;;;;4.22;1.50;;;13.30;99.90;;;;;;5009297;28;20060;-69
2022/05/07 02:49:02;;;;;;;3.22;1.30;;;13.40;99.90;;;;;;5026717;28;20022;-68
2022/05/07 02:51:28;;;;;;;3.50;1.17;;;13.50;99.90;;;;;;5026825;28;20030;-68
2022/05/07 02:53:53;;;;;;;1.42;1.02;;;13.50;99.90;;;;;;5026737;28;20065;-69
2022/05/07 02:56:19;;;;;;;1.83;1.00;;;13.50;99.90;;;;;;5025731;28;20026;-68
2022/05/07 02:58:44;;;;;;;1.85;1.20;;;13.50;99.90;;;;;;5025266;28;20028;-69
2022/05/07 03:01:10;;;;;;;1.15;0.98;;;13.50;99.90;;;;;;5008273;28;20037;-69
2022/05/07 03:03:36;;;;;;;1.80;0.90;;;13.40;99.90;;;;;;5008447;28;20018;-68
2022/05/07 03:06:01;;;;;;;3.35;1.13;;;13.50;99.90;;;;;;5025548;28;20308;-69
2022/05/07 03:08:27;;;;;;;0.98;0.77;;;13.50;99.90;;;;;;5025561;28;20022;-68
2022/05/07 03:10:53;;;;;;;1.13;0.80;;;13.50;99.90;;;;;;5025269;28;20033;-69
2022/05/07 03:13:19;;;;;;;2.03;1.27;;;13.40;99.90;;;;;;5009072;28;20066;-69
2022/05/07 03:15:44;;;;;;;1.90;0.82;;;13.40;99.90;;;;;;5025306;28;20034;-69
2022/05/07 03:18:12;;;;;;;2.45;1.00;;;13.40;99.90;;;;;;5025452;28;20300;-68
2022/05/07 03:20:40;;;;;;;1.42;0.90;;;13.40;99.90;;;;;;5026480;28;20022;-68
2022/05/07 03:23:05;;;;;;;1.45;0.98;;;13.30;99.90;;;;;;5026166;28;20028;-68
2022/05/07 03:25:31;;;;;;;1.52;0.70;;;13.30;99.90;;;;;;5025055;28;20053;-69
2022/05/07 03:27:57;;;;;;;1.92;0.73;;;13.30;99.90;;;;;;5008572;28;20022;-69
2022/05/07 03:30:23;;;;;;;4.10;0.85;;;13.30;99.90;;;;;;5025926;28;20049;-69
2022/05/07 03:32:49;;;;;;;0.60;0.47;;;13.40;99.90;;;;;;5025784;28;20018;-68
2022/05/07 03:35:14;;;;;;;1.50;0.60;;;13.40;99.90;;;;;;5026288;28;20085;-67
2022/05/07 03:37:40;;;;;;;2.80;0.70;;;13.40;99.90;;;;;;5026070;28;20046;-68
2022/05/07 03:40:06;;;;;;;1.42;0.73;;;13.40;99.90;;;;;;5025534;28;20033;-67
2022/05/07 03:42:33;;;;;;;1.35;0.60;;;13.40;99.90;;;;;;5008413;28;20022;-68
2022/05/07 03:45:00;;;;;;;1.10;0.70;;;13.50;99.90;;;;;;5025811;28;20018;-67
2022/05/07 03:47:25;;;;;;;3.22;0.77;;;13.50;99.90;;;;;;5008210;28;20026;-68
2022/05/07 03:49:51;;;;;;;2.03;0.80;;;13.40;99.90;;;;;;5007736;28;20186;-67
2022/05/07 03:55:02;;;;;;;1.00;0.80;;;13.40;99.90;;;;;;5024583;28;20041;-68
2022/05/07 03:57:28;;;;;;;1.70;0.80;;;13.30;99.90;;;;;;5024199;28;20049;-68
2022/05/07 03:59:55;;;;;;;1.33;0.90;;;13.40;99.90;;;;;;5025536;28;20181;-68
2022/05/07 04:02:21;;;;;;;3.63;1.15;;;13.40;99.90;;;;;;5022981;28;20022;-69
2022/05/07 04:04:47;;;;;;;1.80;0.90;;;13.40;99.90;;;;;;5024520;28;20320;-68
2022/05/07 04:07:14;;;;;;;2.13;0.80;;;13.30;99.90;;;;;;5025112;28;20305;-68
2022/05/07 04:09:40;;;;;;;1.30;0.80;;;13.30;99.90;;;;;;5025454;28;20076;-68
2022/05/07 04:12:06;;;;;;;1.52;0.80;;;13.20;99.90;;;;;;4991463;28;20029;-68
2022/05/07 04:14:32;;;;;;;1.88;1.13;;;13.20;99.90;;;;;;5023741;28;20041;-68
2022/05/07 04:16:57;;;;;;;1.40;0.80;;;13.10;99.90;;;;;;5025225;28;20022;-68
2022/05/07 04:19:23;;;;;;;1.65;1.45;;;13.10;99.90;;;;;;5025015;28;20049;-68
2022/05/07 04:21:49;;;;;;;1.13;1.05;;;12.90;99.90;;;;;;5025019;28;20025;-67
2022/05/07 04:24:14;;;;;;;2.38;1.20;;;13.00;99.90;;;;;;5025001;28;20337;-67
2022/05/07 04:26:40;;;;;;;1.67;1.20;;;13.00;99.90;;;;;;5024880;28;20021;-68
2022/05/07 04:29:06;;;;;;;2.95;1.50;;;12.90;99.90;;;;;;5007239;28;20021;-68
2022/05/07 04:31:31;;;;;;;2.35;1.38;;;12.90;99.90;;;;;;5023826;28;20221;-68
2022/05/07 04:33:57;;;;;;;4.07;1.88;;;12.80;99.90;;;;;;5007100;28;20070;-67
2022/05/07 04:36:22;;;;;;;4.22;1.92;;;12.80;99.90;;;;;;4991282;28;20025;-68
2022/05/07 04:38:48;;;;;;;3.15;1.80;;;12.80;99.90;;;;;;5023779;28;20038;-70
2022/05/07 04:41:14;;;;;;;3.28;1.65;;;12.80;99.90;;;;;;5024686;28;20243;-68
2022/05/07 04:43:39;;;;;;;2.83;1.33;;;12.80;99.90;;;;;;5024808;28;20056;-67
2022/05/07 04:46:05;;;;;;;6.00;1.73;;;12.80;99.90;;;;;;4990971;28;20217;-68
2022/05/07 04:48:30;;;;;;;2.75;1.45;;;12.80;99.90;;;;;;5023708;28;20037;-68
2022/05/07 04:50:56;;;;;;;3.75;1.50;;;12.90;99.90;;;;;;4990821;28;20029;-68
2022/05/07 04:53:22;;;;;;;4.82;1.85;;;12.90;99.90;;;;;;5023205;28;20081;-67
2022/05/07 04:55:47;;;;;;;4.30;1.70;;;12.80;99.90;;;;;;5024579;28;20084;-68
2022/05/07 04:58:13;;;;;;;2.75;1.83;;;12.70;99.90;;;;;;5023117;28;20037;-69
2022/05/07 05:00:39;;;;;;;3.70;1.80;;;12.60;99.90;;;;;;5023437;28;20018;-68
2022/05/07 05:03:07;;;;;;;2.85;2.10;;;12.60;99.90;;;;;;5022160;28;20323;-68
2022/05/07 05:05:33;;;;;;;5.53;2.08;;;12.60;99.90;;;;;;5023349;28;20022;-68
2022/05/07 05:07:58;;;;;;;3.28;2.25;;;12.60;99.90;;;;;;5007107;28;20244;-67
2022/05/07 05:10:26;;;;;;;3.95;1.95;;;12.60;99.90;;;;;;5006913;28;20056;-68
2022/05/07 05:12:51;;;;;;;3.00;1.88;;;12.60;99.90;;;;;;5022668;28;20080;-68
2022/05/07 05:15:17;;;;;;;2.42;1.70;;;12.50;99.90;;;;;;5006874;28;20042;-68
2022/05/07 05:17:43;;;;;;;3.75;1.83;;;12.50;99.90;;;;;;5006770;28;20032;-68
2022/05/07 05:20:09;;;;;;;2.65;2.20;;;12.40;99.90;;;;;;5024236;28;20197;-68
2022/05/07 05:22:35;;;;;;;3.67;2.20;;;12.40;99.90;;;;;;5023897;28;20041;-68
2022/05/07 05:25:04;;;;;;;4.30;2.45;;;12.40;99.90;;;;;;5023176;28;20026;-68
2022/05/07 05:27:32;;;;;;;4.97;2.45;;;12.40;99.90;;;;;;5023357;28;20305;-67
2022/05/07 05:29:58;;;;;;;7.45;2.53;;;12.50;99.90;;;;;;5022890;28;20236;-68
2022/05/07 05:32:23;;;;;;;3.65;2.53;;;12.60;99.90;;;;;;5022579;28;20028;-70
2022/05/07 05:34:52;;;;;;;4.70;2.58;;;12.70;99.90;;;;;;5022833;28;20033;-66
2022/05/07 05:37:18;;;;;;;5.43;2.40;;;12.60;99.90;;;;;;5022516;28;20025;-68
2022/05/07 05:39:44;;;;;;;8.10;2.70;;;12.70;99.90;;;;;;5024076;28;20025;-68
2022/05/07 05:42:11;;;;;;;3.67;1.73;;;12.70;99.90;;;;;;5022671;28;20033;-68
2022/05/07 05:44:39;;;;;;;3.60;1.95;;;12.70;99.90;;;;;;5022710;28;20308;-67
2022/05/07 05:47:06;;;;;;;3.63;1.88;;;12.70;99.90;;;;;;5023738;28;20362;-68
2022/05/07 05:49:33;;;;;;;2.85;1.70;;;12.70;99.90;;;;;;5022907;28;20067;-68
2022/05/07 05:52:00;;;;;;;3.13;2.05;;;12.70;99.90;;;;;;5023672;28;20022;-68
2022/05/07 05:54:27;;;;;;;3.35;1.73;;;12.70;99.90;;;;;;5022535;28;20042;-68
2022/05/07 05:56:52;;;;;;;2.80;1.80;;;12.80;99.90;;;;;;5023329;28;20321;-70
2022/05/07 05:59:18;;;;;;;5.35;1.70;;;12.90;99.90;;;;;;5022594;28;20025;-67
2022/05/07 06:01:43;;;;;;;2.58;1.85;;;13.00;99.90;;;;;;5023864;28;20032;-68
2022/05/07 06:04:10;;;;;;;3.45;1.30;;;13.00;99.90;;;;;;5020990;28;20022;-68
2022/05/07 06:06:36;;;;;;;5.53;1.65;;;13.00;99.90;;;;;;5022823;28;20297;-69
2022/05/07 06:09:02;;;;;;;2.45;1.80;;;13.00;99.90;;;;;;5022683;28;20029;-68
2022/05/07 06:11:28;;;;;;;3.80;2.33;;;12.90;99.90;;;;;;5022388;28;20025;-68
2022/05/07 06:13:54;;;;;;;1.90;1.80;;;12.90;99.90;;;;;;5023987;28;20219;-69
2022/05/07 06:16:19;;;;;;;2.75;1.50;;;12.90;99.90;;;;;;5026395;28;20029;-67
2022/05/07 06:18:45;;;;;;;4.18;1.63;;;12.90;99.90;;;;;;5027140;28;20064;-68
2022/05/07 06:21:11;;;;;;;3.13;1.65;;;13.00;99.90;;;;;;5026532;28;20029;-68
2022/05/07 06:23:37;;;;;;;3.28;1.60;;;13.00;99.90;;;;;;5027128;28;20037;-67
2022/05/07 06:28:48;;;;;;;2.42;1.63;;;13.10;99.90;;;;;;5025750;28;20022;-67
2022/05/07 06:31:14;;;;;;;3.25;1.70;;;13.10;99.90;;;;;;5027307;28;20089;-68
2022/05/07 06:33:39;;;;;;;4.18;2.03;;;13.00;99.90;;;;;;5025684;28;20057;-67
2022/05/07 06:36:07;;;;;;;3.55;1.58;;;13.00;99.90;;;;;;5027180;28;20221;-69
2022/05/07 06:38:33;;;;;;;2.83;1.40;;;12.90;99.90;;;;;;5027187;28;20356;-68
2022/05/07 06:41:02;;;;;;;3.65;1.40;;;13.00;99.90;;;;;;5027169;28;20056;-70
2022/05/07 06:43:30;;;;;;;6.90;1.90;;;13.00;99.90;;;;;;4994031;28;20208;-68
2022/05/07 06:45:58;;;;;;;2.83;1.92;;;13.00;99.90;;;;;;5009287;28;20030;-67
2022/05/07 06:48:24;;;;;;;4.18;1.70;;;13.00;99.90;;;;;;5009865;28;20088;-68
2022/05/07 06:50:50;;;;;;;5.95;1.90;;;13.10;99.90;;;;;;5027073;28;20022;-68
2022/05/07 06:53:16;;;;;;;3.53;1.65;;;13.10;99.90;;;;;;5025102;28;20060;-68
2022/05/07 06:55:58;;;;;;;5.25;1.63;;;13.20;99.90;;;;;;5025780;28;20021;-69
2022/05/07 06:58:29;;;;;;;4.78;1.63;;;13.20;99.90;;;;;;5025252;28;20044;-67
2022/05/07 07:00:54;;;;;;;2.67;1.75;;;13.30;99.90;;;;;;5026779;28;20049;-68
2022/05/07 07:03:20;;;;;;;4.47;1.80;;;13.30;99.90;;;;;;5026480;28;20025;-69
2022/05/07 07:05:47;;;;;;;2.90;1.70;;;13.30;99.90;;;;;;5025374;28;20045;-68
2022/05/07 07:08:13;;;;;;;1.83;1.48;;;13.40;99.90;;;;;;5009286;28;20018;-68
2022/05/07 07:10:41;;;;;;;2.88;1.42;;;13.40;99.90;;;;;;5025376;28;20029;-69
2022/05/07 07:13:07;;;;;;;3.33;1.50;;;13.50;99.90;;;;;;5025011;28;20079;-68
2022/05/07 07:15:33;;;;;;;5.18;1.35;;;13.50;99.90;;;;;;5024934;28;20030;-69
2022/05/07 07:18:00;;;;;;;6.28;1.77;;;13.50;99.90;;;;;;5026428;28;20030;-69
2022/05/07 07:20:25;;;;;;;3.78;1.50;;;13.60;99.90;;;;;;5025337;28;20044;-69
2022/05/07 07:22:51;;;;;;;2.75;1.25;;;13.70;99.90;;;;;;5026499;28;20281;-68
2022/05/07 07:25:17;;;;;;;6.70;1.70;;;13.70;99.90;;;;;;5008413;28;20025;-68
2022/05/07 07:27:42;;;;;;;3.72;1.70;;;13.70;99.90;;;;;;5024704;28;20018;-69
2022/05/07 07:30:08;;;;;;;3.17;1.50;;;13.70;99.90;;;;;;5025142;28;20049;-69
2022/05/07 07:32:34;;;;;;;4.57;1.45;;;13.70;99.90;;;;;;5024763;28;20064;-69
2022/05/07 07:34:59;;;;;;;5.22;1.70;;;13.80;99.90;;;;;;5008301;28;20029;-69
2022/05/07 07:37:27;;;;;;;3.92;1.60;;;13.80;99.90;;;;;;5008306;28;20085;-69
2022/05/07 07:39:53;;;;;;;3.70;1.50;;;13.90;99.90;;;;;;5025970;28;20029;-69
2022/05/07 07:42:23;;;;;;;2.80;1.50;;;14.00;99.90;;;;;;5008510;28;20088;-69
2022/05/07 07:47:56;;;;;;;6.72;1.58;;;14.10;99.90;;;;;;5008775;28;20022;-69
2022/05/07 07:50:20;;;;;;;3.97;1.60;;;14.30;99.90;;;;;;5011275;28;20018;-71
2022/05/07 07:52:45;;;;;;;6.75;2.00;;;14.30;99.90;;;;;;5024536;28;20021;-70
2022/05/07 07:55:11;;;;;;;4.18;1.48;;;14.30;99.70;;;;;;5024340;28;20054;-69
2022/05/07 07:57:36;;;;;;;4.05;1.63;;;14.40;99.70;;;;;;5024984;28;20026;-69
2022/05/07 08:00:03;;;;;;;1.73;1.23;;;14.40;99.50;;;;;;5024196;28;20026;-69
2022/05/07 08:02:28;;;;;;;5.68;1.60;;;14.50;99.70;;;;;;5025452;28;20022;-68
2022/05/07 08:04:55;;;;;;;3.40;1.40;;;14.50;99.30;;;;;;4991697;28;20037;-69
2022/05/07 08:12:52;;;;;;;2.80;1.48;;;14.60;99.30;;;;;;5010864;28;20198;-69
2022/05/07 08:15:18;;;;;;;3.60;1.50;;;14.70;98.90;;;;;;5007659;28;20025;-69
2022/05/07 08:17:44;;;;;;;2.85;1.50;;;14.90;98.60;;;;;;5024143;28;20022;-69
2022/05/07 08:20:10;;;;;;;3.70;1.33;;;15.00;98.40;;;;;;5007820;28;20057;-69
2022/05/07 08:22:35;;;;;;;3.67;1.20;;;15.10;98.40;;;;;;5025125;28;20029;-70
2022/05/07 08:25:01;;;;;;;3.53;1.40;;;15.20;97.60;;;;;;5023892;28;20209;-69
2022/05/07 08:27:27;;;;;;;2.53;1.10;;;15.30;96.90;;;;;;5023692;28;20056;-68
2022/05/07 08:29:56;;;;;;;3.97;1.30;;;15.30;96.00;;;;;;5025072;28;20077;-69
2022/05/07 08:32:22;;;;;;;3.80;1.42;;;15.20;96.60;;;;;;5023625;28;20101;-68
2022/05/07 08:34:48;;;;;;;3.47;1.25;;;15.30;96.80;;;;;;5023631;28;20030;-69
2022/05/07 08:37:14;;;;;;;2.35;1.17;;;15.30;96.10;;;;;;5006946;28;20022;-69
2022/05/07 08:39:40;;;;;;;4.45;1.45;;;15.40;96.70;;;;;;5023666;28;20068;-69
2022/05/07 08:42:07;;;;;;;2.55;1.30;;;15.50;96.50;;;;;;5023624;28;20057;-69
2022/05/07 08:44:33;;;;;;;4.97;1.25;;;15.60;95.40;;;;;;5024575;28;20375;-69
2022/05/07 08:46:59;;;;;;;5.07;1.70;;;15.60;95.40;;;;;;5024802;28;20030;-69
2022/05/07 08:49:25;;;;;;;5.28;1.30;;;15.70;95.80;;;;;;5023558;28;20068;-70
2022/05/07 08:51:54;;;;;;;2.97;1.13;;;15.80;95.30;;;;;;5023566;28;20213;-69
2022/05/07 08:54:20;;;;;;;3.85;1.33;;;15.80;94.40;;;;;;5022786;28;20053;-68
2022/05/07 08:56:46;;;;;;;4.28;1.30;;;15.80;94.80;;;;;;5024122;28;20035;-71
2022/05/07 08:59:13;;;;;;;2.20;1.33;;;15.80;94.80;;;;;;5006981;28;20046;-69
2022/05/07 09:01:39;;;;;;;2.45;1.08;;;15.90;94.60;;;;;;5024504;28;20084;-68
2022/05/07 09:04:09;;;;;;;3.28;1.30;;;16.00;94.20;;;;;;5024426;28;20045;-68
2022/05/07 09:06:36;;;;;;;6.43;1.95;;;16.00;94.00;;;;;;5021506;28;20022;-67
2022/05/07 09:09:05;;;;;;;3.40;1.30;;;16.00;93.60;;;;;;5023357;28;20018;-68
2022/05/07 09:11:42;;;;;;;5.95;1.20;;;16.10;93.10;;;;;;5023384;28;20049;-69
2022/05/07 09:14:08;;;;;;;4.78;1.30;;;16.10;92.90;;;;;;5023162;28;20029;-69
2022/05/07 09:16:45;;;;;;;5.22;1.17;;;16.10;92.60;;;;;;5023004;28;20029;-69
2022/05/07 09:19:24;;;;;;;3.88;1.10;;;16.10;92.00;;;;;;5023323;28;20260;-68
2022/05/07 09:21:50;;;;;;;2.83;0.82;;;16.10;91.50;;;;;;5024262;28;20084;-69
2022/05/07 09:24:17;;;;;;;4.80;1.10;;;16.10;91.40;;;;;;5022975;28;20380;-70
2022/05/07 09:26:44;;;;;;;2.60;0.98;;;16.30;91.40;;;;;;5023723;28;20065;-69
2022/05/07 09:29:12;;;;;;;2.60;1.00;;;16.50;91.60;;;;;;5006493;28;20029;-71
2022/05/07 09:31:43;;;;;;;1.88;0.63;;;16.50;91.10;;;;;;5023123;28;20014;-69
2022/05/07 09:37:01;;;;;;;3.67;0.80;;;16.70;89.80;;;;;;5009520;28;20026;-71
2022/05/07 09:39:34;;;;;;;2.33;1.05;;;16.80;88.80;;;;;;5023969;28;20126;-68
2022/05/07 09:42:01;;;;;;;4.18;0.90;;;16.80;89.20;;;;;;5024015;28;20025;-69
2022/05/07 09:44:28;;;;;;;3.08;1.02;;;16.80;89.00;;;;;;5023891;28;20289;-68
2022/05/07 09:46:56;;;;;;;4.32;0.90;;;16.70;89.10;;;;;;5022534;28;20017;-70
2022/05/07 09:49:25;;;;;;;4.93;1.10;;;16.80;88.30;;;;;;5009849;28;20022;-68
2022/05/07 09:51:53;;;;;;;1.33;0.65;;;16.70;89.40;;;;;;5026898;28;20047;-70
2022/05/07 09:59:56;;;;;;;3.20;0.63;;;16.90;85.40;;;;;;5013428;28;20022;-69
2022/05/07 10:02:46;;;;;;;3.97;0.93;;;17.00;85.50;;;;;;5010481;28;20363;-69
2022/05/07 10:05:50;;;;;;;2.20;0.90;;;17.10;85.50;;;;;;5026612;28;20029;-69
2022/05/07 10:08:40;;;;;;;2.40;0.57;;;17.10;84.10;;;;;;5025460;28;20029;-70
2022/05/07 10:11:08;;;;;;;3.33;0.60;;;17.10;81.50;;;;;;5026375;28;20364;-69
2022/05/07 10:13:34;;;;;;;2.47;0.55;;;17.10;83.30;;;;;;5027391;28;20312;-70
2022/05/07 10:16:01;;;;;;;3.17;0.60;;;17.20;84.50;;;;;;5027435;28;20053;-69
2022/05/07 10:18:43;;;;;;;1.63;0.60;;;17.40;82.40;;;;;;5010031;28;20022;-70
2022/05/07 10:21:15;;;;;;;2.40;0.70;;;17.50;80.40;;;;;;5027390;28;20033;-70
2022/05/07 10:23:57;;;;;;;2.03;0.50;;;17.50;80.00;;;;;;5026315;28;20026;-70
2022/05/07 10:26:36;;;;;;;6.65;0.60;;;17.50;80.10;;;;;;5027285;28;20041;-70
2022/05/07 10:29:03;;;;;;;1.90;0.70;;;17.60;79.20;;;;;;5011249;28;20026;-68
2022/05/07 10:31:29;;;;;;;1.98;0.73;;;17.70;78.60;;;;;;5026139;28;20283;-70
2022/05/07 10:33:55;;;;;;;0.80;0.40;;;17.70;79.60;;;;;;5009534;28;20026;-71
2022/05/07 10:36:22;;;;;;;2.40;0.60;;;17.90;78.30;;;;;;5026018;28;20389;-69
2022/05/07 10:38:49;;;;;;;1.27;0.47;;;17.90;78.30;;;;;;5027148;28;20049;-68
2022/05/07 10:41:22;;;;;;;3.28;0.90;;;18.00;77.60;;;;;;5027031;28;20025;-68
2022/05/07 10:44:00;;;;;;;1.33;0.57;;;18.10;79.10;;;;;;4993856;28;20264;-70
2022/05/07 10:46:38;;;;;;;1.95;0.50;;;18.30;78.70;;;;;;5009718;28;20030;-69
2022/05/07 10:49:04;;;;;;;3.88;0.70;;;18.30;79.00;;;;;;5026972;28;20032;-68
2022/05/07 10:51:36;;;;;;;0.82;0.50;;;18.30;79.80;;;;;;5027015;28;20076;-69
2022/05/07 10:54:22;;;;;;;1.92;0.50;;;18.30;76.80;;;;;;5009426;28;20117;-70
2022/05/07 10:56:50;;;;;;;2.53;0.80;;;18.30;76.70;;;;;;5025400;28;20026;-70
2022/05/07 10:59:17;;;;;;;2.47;0.85;;;18.40;79.50;;;;;;5008495;28;20025;-71
2022/05/07 11:01:43;;;;;;;0.88;0.50;;;18.30;80.20;;;;;;5026750;28;20022;-71
2022/05/07 11:04:12;;;;;;;1.48;0.75;;;18.40;80.20;;;;;;5025400;28;20025;-70
2022/05/07 11:06:52;;;;;;;2.45;0.70;;;18.40;79.90;;;;;;5025690;28;20033;-69
2022/05/07 11:09:24;;;;;;;3.65;0.80;;;18.70;80.10;;;;;;5024118;28;20021;-69
2022/05/07 11:11:54;;;;;;;1.23;0.70;;;18.80;79.50;;;;;;5025538;28;20029;-69
2022/05/07 11:14:25;;;;;;;0.63;0.60;;;18.80;80.80;;;;;;5008970;28;20041;-69
2022/05/07 11:16:52;;;;;;;4.07;0.95;;;18.90;80.30;;;;;;5025258;28;20423;-69
2022/05/07 11:19:32;;;;;;;1.10;0.68;;;19.10;80.30;;;;;;5025061;28;20025;-70
2022/05/07 11:22:00;;;;;;;2.17;0.85;;;19.20;80.30;;;;;;5025268;28;20018;-69
2022/05/07 11:24:26;;;;;;;2.55;0.80;;;19.30;79.70;;;;;;5026259;28;20022;-68
2022/05/07 11:26:54;;;;;;;1.48;1.10;;;19.30;79.00;;;;;;5008655;28;20052;-69
2022/05/07 11:29:20;;;;;;;3.13;0.82;;;19.40;79.80;;;;;;5024778;28;20028;-70
2022/05/07 11:32:06;;;;;;;6.05;1.25;;;19.50;80.50;;;;;;5026107;28;20057;-70
2022/05/07 11:34:36;;;;;;;0.98;0.85;;;19.60;79.30;;;;;;5024604;28;20313;-70
2022/05/07 11:37:15;;;;;;;4.38;1.20;;;19.60;79.30;;;;;;5025032;28;20039;-70
2022/05/07 11:39:56;;;;;;;3.67;1.20;;;19.30;79.80;;;;;;5009245;28;20022;-69
2022/05/07 11:42:45;;;;;;;1.58;1.00;;;19.30;80.30;;;;;;5024754;28;20093;-70
2022/05/07 11:45:29;;;;;;;6.25;1.40;;;19.30;80.20;;;;;;5024651;28;20213;-70
2022/05/07 11:48:18;;;;;;;2.53;1.10;;;19.00;79.70;;;;;;5024639;28;20022;-69
2022/05/07 11:50:59;;;;;;;2.55;1.00;;;18.90;79.70;;;;;;5025015;28;20024;-70
2022/05/07 11:53:36;;;;;;;1.10;0.80;;;18.70;79.40;;;;;;5024176;28;20077;-69
2022/05/07 11:56:07;;;;;;;2.55;0.95;;;18.70;79.70;;;;;;5024774;28;20290;-70
2022/05/07 11:58:46;;;;;;;3.25;1.05;;;18.80;79.60;;;;;;5008001;28;20071;-70
2022/05/07 12:01:24;;;;;;;2.20;1.10;;;18.60;79.80;;;;;;5025672;28;20029;-70
2022/05/07 12:03:50;;;;;;;0.80;0.80;;;18.70;79.90;;;;;;5025354;28;20077;-71
2022/05/07 12:06:30;;;;;;;3.58;0.90;;;19.00;79.60;;;;;;5025487;28;20026;-70
2022/05/07 12:08:56;;;;;;;1.45;0.77;;;19.20;79.20;;;;;;5022659;28;20315;-70
2022/05/07 12:11:23;;;;;;;0.75;0.70;;;19.50;78.10;;;;;;5023407;28;20018;-70
2022/05/07 12:13:49;;;;;;;1.30;0.60;;;19.70;76.80;;;;;;5007937;28;20212;-70
2022/05/07 12:19:01;;;;;;;2.85;0.80;;;19.50;77.60;;;;;;5024281;28;20026;-69
2022/05/07 12:29:51;;;;;;;2.83;0.90;;;19.40;76.60;;;;;;5023992;28;20025;-69
2022/05/07 12:32:21;;;;;;;5.30;1.10;;;19.60;76.80;;;;;;4993263;28;20021;-69
2022/05/07 12:34:48;;;;;;;0.98;0.65;;;19.70;76.40;;;;;;5023790;28;20029;-70
2022/05/07 12:37:14;;;;;;;4.18;0.98;;;19.80;75.50;;;;;;5023981;28;20037;-69
2022/05/07 12:39:39;;;;;;;2.70;0.77;;;19.80;75.40;;;;;;5024873;28;20026;-69
2022/05/07 12:42:08;;;;;;;1.05;0.80;;;19.70;75.30;;;;;;5024142;28;20030;-70
2022/05/07 12:44:34;;;;;;;1.95;0.70;;;19.90;75.40;;;;;;5025300;28;20028;-69
2022/05/07 12:46:59;;;;;;;2.63;0.70;;;20.10;75.50;;;;;;5024005;28;20084;-69
2022/05/07 12:49:26;;;;;;;4.90;0.82;;;20.30;75.20;;;;;;5023597;28;20025;-70
2022/05/07 12:51:53;;;;;;;2.13;0.90;;;20.40;75.00;;;;;;5024054;28;20243;-69
2022/05/07 12:54:19;;;;;;;1.52;0.60;;;20.40;74.60;;;;;;5024417;28;20092;-69
2022/05/07 12:56:46;;;;;;;0.98;0.63;;;20.50;73.50;;;;;;5024389;28;20085;-70
2022/05/07 12:59:12;;;;;;;3.00;0.80;;;20.20;72.60;;;;;;5024491;28;20081;-69
2022/05/07 13:01:38;;;;;;;2.55;0.93;;;20.10;73.50;;;;;;5024830;28;20212;-69
2022/05/07 13:04:04;;;;;;;2.30;0.90;;;20.00;73.70;;;;;;5024490;28;20092;-70
2022/05/07 13:06:30;;;;;;;2.47;0.68;;;19.70;74.70;;;;;;5007283;28;20026;-69
2022/05/07 13:08:58;;;;;;;1.27;0.60;;;19.70;75.30;;;;;;5023208;28;20017;-70
2022/05/07 13:11:25;;;;;;;2.80;0.75;;;19.70;75.70;;;;;;5021928;28;20301;-70
2022/05/07 13:13:51;;;;;;;2.63;0.77;;;19.80;75.90;;;;;;5024373;28;20089;-70
2022/05/07 13:16:17;;;;;;;1.92;0.70;;;20.00;73.80;;;;;;5024528;28;20029;-70
2022/05/07 13:18:44;;;;;;;2.03;0.82;;;20.10;74.70;;;;;;5024332;28;20053;-70
2022/05/07 13:21:10;;;;;;;1.40;0.70;;;20.00;75.30;;;;;;5024263;28;20091;-69
2022/05/07 13:23:36;;;;;;;7.05;0.68;;;20.00;74.80;;;;;;5006274;28;20040;-69
2022/05/07 13:26:02;;;;;;;2.80;1.08;;;20.00;73.00;;;;;;5023080;28;20053;-69
2022/05/07 13:28:28;;;;;;;2.25;0.82;;;20.10;72.90;;;;;;5022318;28;20026;-69
2022/05/07 13:30:57;;;;;;;1.23;0.50;;;20.00;73.80;;;;;;5023923;28;20048;-70
2022/05/07 13:33:23;;;;;;;1.58;0.90;;;20.00;73.30;;;;;;5022609;28;20240;-69